RJA017 EDHI-OJAI
Flight info
| Callsign | RJA017 |
|---|---|
| Flight time | N/A |
| Altitude | 36000 |
| Route | WSN5E WSN DCT BASUM DCT MEVEL DCT ERKUM DCT KENUM DCT DIK/N0443F370 DCT LUPEN DCT NATOR DCT ZUE DCT RESIA DCT LAREN DCT TORPO DCT AZHIF DCT TIGRA UL995 KRK UL53 KOR UN604 ATV UL607 KEA UL52 VAXOS UN134 VANZA N134 RALNA |
| Aircraft | A21N/M-SDE2E3FGHIRWXY/LB1 |
Departure
| Time | N/A |
|---|---|
| Airport | Hamburg-Finkenwerder Airport (EDHI) |
Arrival
| Time | 2026-04-30 13:13 |
|---|---|
| Airport | Queen Alia International Airport (OJAI) |
| Time | Latitude | Longitude | Altitude | Speed | Heading |
|---|---|---|---|---|---|
| 2026-04-30 12:37 | 33.30060 | 32.52277 | 37032 ft | 493 kts | 128° |
| 2026-04-30 12:37 | 33.28097 | 32.55636 | 37033 ft | 493 kts | 128° |
| 2026-04-30 12:37 | 33.24169 | 32.62345 | 37026 ft | 493 kts | 128° |
| 2026-04-30 12:38 | 33.20267 | 32.68994 | 37029 ft | 492 kts | 128° |
| 2026-04-30 12:38 | 33.16330 | 32.75691 | 37029 ft | 492 kts | 128° |
| 2026-04-30 12:39 | 33.12393 | 32.82376 | 37029 ft | 491 kts | 128° |
| 2026-04-30 12:39 | 33.08461 | 32.89048 | 37026 ft | 491 kts | 128° |
| 2026-04-30 12:40 | 33.04533 | 32.95738 | 37029 ft | 493 kts | 128° |
| 2026-04-30 12:40 | 33.00593 | 33.02431 | 37029 ft | 493 kts | 128° |
| 2026-04-30 12:41 | 32.96643 | 33.09124 | 37027 ft | 493 kts | 128° |
| 2026-04-30 12:41 | 32.92728 | 33.15754 | 37027 ft | 493 kts | 128° |
| 2026-04-30 12:42 | 32.88784 | 33.22415 | 37018 ft | 492 kts | 129° |
| 2026-04-30 12:42 | 32.84839 | 33.29065 | 37022 ft | 492 kts | 129° |
| 2026-04-30 12:43 | 32.80891 | 33.35709 | 37015 ft | 492 kts | 129° |
| 2026-04-30 12:43 | 32.76942 | 33.42347 | 37020 ft | 492 kts | 129° |
| 2026-04-30 12:44 | 32.72991 | 33.48982 | 37025 ft | 492 kts | 129° |
| 2026-04-30 12:44 | 32.69032 | 33.55612 | 37028 ft | 491 kts | 129° |
| 2026-04-30 12:45 | 32.65085 | 33.62210 | 37035 ft | 490 kts | 129° |
| 2026-04-30 12:45 | 32.61133 | 33.68800 | 37023 ft | 490 kts | 129° |
| 2026-04-30 12:46 | 32.57201 | 33.75344 | 37024 ft | 490 kts | 129° |
| 2026-04-30 12:46 | 32.53251 | 33.81919 | 37017 ft | 490 kts | 129° |
| 2026-04-30 12:47 | 32.49289 | 33.88498 | 37015 ft | 488 kts | 129° |
| 2026-04-30 12:47 | 32.45341 | 33.95037 | 36996 ft | 488 kts | 129° |
| 2026-04-30 12:48 | 32.41374 | 34.01593 | 37011 ft | 490 kts | 129° |
| 2026-04-30 12:48 | 32.37472 | 34.08223 | 37012 ft | 493 kts | 124° |
| 2026-04-30 12:49 | 32.34320 | 34.15468 | 37008 ft | 496 kts | 119° |
| 2026-04-30 12:49 | 32.32791 | 34.19101 | 36760 ft | 495 kts | 119° |
| 2026-04-30 12:49 | 32.31249 | 34.22748 | 36489 ft | 497 kts | 120° |
| 2026-04-30 12:50 | 32.29714 | 34.26358 | 36234 ft | 498 kts | 120° |
| 2026-04-30 12:50 | 32.28156 | 34.30016 | 35976 ft | 498 kts | 120° |
| 2026-04-30 12:50 | 32.26601 | 34.33658 | 35491 ft | 495 kts | 119° |
| 2026-04-30 12:50 | 32.25050 | 34.37293 | 34818 ft | 494 kts | 119° |
| 2026-04-30 12:51 | 32.23505 | 34.40908 | 34067 ft | 493 kts | 119° |
| 2026-04-30 12:51 | 32.21962 | 34.44518 | 33167 ft | 493 kts | 119° |
| 2026-04-30 12:51 | 32.20411 | 34.48141 | 32279 ft | 495 kts | 119° |
| 2026-04-30 12:51 | 32.18854 | 34.51773 | 31407 ft | 497 kts | 119° |
| 2026-04-30 12:52 | 32.17314 | 34.55435 | 30547 ft | 498 kts | 116° |
| 2026-04-30 12:52 | 32.16485 | 34.57961 | 29956 ft | 500 kts | 109° |
| 2026-04-30 12:52 | 32.15445 | 34.63313 | 28701 ft | 499 kts | 101° |
| 2026-04-30 12:52 | 32.14802 | 34.67325 | 27861 ft | 495 kts | 101° |
| 2026-04-30 12:53 | 32.14166 | 34.71298 | 27111 ft | 489 kts | 101° |
| 2026-04-30 12:53 | 32.13525 | 34.75228 | 26311 ft | 485 kts | 101° |
| 2026-04-30 12:53 | 32.12881 | 34.79120 | 25549 ft | 481 kts | 102° |
| 2026-04-30 12:53 | 32.12239 | 34.82984 | 24795 ft | 478 kts | 102° |
| 2026-04-30 12:54 | 32.11600 | 34.86815 | 24011 ft | 475 kts | 102° |
| 2026-04-30 12:54 | 32.10895 | 34.90603 | 23169 ft | 469 kts | 107° |
| 2026-04-30 12:54 | 32.09895 | 34.94232 | 22312 ft | 461 kts | 110° |
| 2026-04-30 12:54 | 32.09217 | 34.96586 | 21764 ft | 456 kts | 110° |
| 2026-04-30 12:55 | 32.07880 | 35.01221 | 20721 ft | 445 kts | 110° |
| 2026-04-30 12:55 | 32.06894 | 35.04644 | 20001 ft | 436 kts | 110° |
| 2026-04-30 12:55 | 32.05929 | 35.08002 | 19327 ft | 428 kts | 110° |
| 2026-04-30 12:55 | 32.04981 | 35.11302 | 18685 ft | 420 kts | 110° |
| 2026-04-30 12:56 | 32.04053 | 35.14526 | 18052 ft | 411 kts | 110° |
| 2026-04-30 12:56 | 32.03141 | 35.17686 | 17394 ft | 403 kts | 110° |
| 2026-04-30 12:56 | 32.02243 | 35.20790 | 16743 ft | 396 kts | 111° |
| 2026-04-30 12:56 | 32.01351 | 35.23843 | 16152 ft | 393 kts | 111° |
| 2026-04-30 12:57 | 32.00460 | 35.26889 | 15572 ft | 392 kts | 110° |
| 2026-04-30 12:57 | 31.99588 | 35.29925 | 15013 ft | 390 kts | 110° |
| 2026-04-30 12:57 | 31.98723 | 35.32940 | 14455 ft | 388 kts | 110° |
| 2026-04-30 12:57 | 31.97858 | 35.35952 | 13873 ft | 387 kts | 110° |
| 2026-04-30 12:58 | 31.97003 | 35.38924 | 13252 ft | 379 kts | 110° |
| 2026-04-30 12:58 | 31.96170 | 35.41824 | 12679 ft | 369 kts | 110° |
| 2026-04-30 12:58 | 31.95355 | 35.44653 | 12134 ft | 361 kts | 110° |
| 2026-04-30 12:58 | 31.94554 | 35.47420 | 11574 ft | 355 kts | 111° |
| 2026-04-30 12:59 | 31.93765 | 35.50152 | 11113 ft | 349 kts | 110° |
| 2026-04-30 12:59 | 31.93220 | 35.52872 | 10937 ft | 334 kts | 101° |
| 2026-04-30 12:59 | 31.92955 | 35.55504 | 10900 ft | 314 kts | 99° |
| 2026-04-30 12:59 | 31.92731 | 35.57990 | 10900 ft | 301 kts | 99° |
| 2026-04-30 13:00 | 31.92506 | 35.60432 | 10913 ft | 299 kts | 99° |
| 2026-04-30 13:00 | 31.92280 | 35.62841 | 10865 ft | 300 kts | 99° |
| 2026-04-30 13:00 | 31.92050 | 35.65283 | 10762 ft | 300 kts | 99° |
| 2026-04-30 13:00 | 31.91819 | 35.67715 | 10668 ft | 299 kts | 99° |
| 2026-04-30 13:01 | 31.91586 | 35.70142 | 10554 ft | 298 kts | 99° |
| 2026-04-30 13:01 | 31.91355 | 35.72560 | 10438 ft | 297 kts | 99° |
| 2026-04-30 13:01 | 31.91121 | 35.74985 | 10334 ft | 298 kts | 100° |
| 2026-04-30 13:01 | 31.90887 | 35.77395 | 10202 ft | 296 kts | 99° |
| 2026-04-30 13:02 | 31.90654 | 35.79796 | 10089 ft | 295 kts | 99° |
| 2026-04-30 13:02 | 31.90421 | 35.82190 | 9965 ft | 293 kts | 98° |
| 2026-04-30 13:02 | 31.90189 | 35.84574 | 9844 ft | 293 kts | 99° |
| 2026-04-30 13:02 | 31.89957 | 35.86958 | 9720 ft | 293 kts | 99° |
| 2026-04-30 13:03 | 31.89723 | 35.89344 | 9588 ft | 293 kts | 99° |
| 2026-04-30 13:03 | 31.89490 | 35.91722 | 9465 ft | 292 kts | 99° |
| 2026-04-30 13:03 | 31.89257 | 35.94096 | 9338 ft | 291 kts | 99° |
| 2026-04-30 13:03 | 31.89024 | 35.96468 | 9211 ft | 292 kts | 99° |
| 2026-04-30 13:04 | 31.88793 | 35.98811 | 9086 ft | 291 kts | 98° |
| 2026-04-30 13:04 | 31.88560 | 36.01176 | 8964 ft | 291 kts | 99° |
| 2026-04-30 13:04 | 31.88326 | 36.03543 | 8809 ft | 290 kts | 99° |
| 2026-04-30 13:04 | 31.88092 | 36.05894 | 8532 ft | 289 kts | 99° |
| 2026-04-30 13:05 | 31.87859 | 36.08236 | 8197 ft | 288 kts | 98° |
| 2026-04-30 13:05 | 31.87627 | 36.10573 | 7841 ft | 287 kts | 98° |
| 2026-04-30 13:05 | 31.87396 | 36.12902 | 7479 ft | 287 kts | 98° |
| 2026-04-30 13:06 | 31.86929 | 36.17557 | 6727 ft | 283 kts | 97° |
| 2026-04-30 13:06 | 31.86702 | 36.19832 | 6464 ft | 275 kts | 98° |
| 2026-04-30 13:06 | 31.86422 | 36.22009 | 6237 ft | 265 kts | 105° |
| 2026-04-30 13:06 | 31.85983 | 36.23364 | 6028 ft | 275 kts | 119° |
| 2026-04-30 13:07 | 31.84759 | 36.25048 | 5643 ft | 270 kts | 144° |
| 2026-04-30 13:07 | 31.83065 | 36.25954 | 5329 ft | 260 kts | 169° |
| 2026-04-30 13:07 | 31.81310 | 36.26135 | 4928 ft | 260 kts | 185° |
| 2026-04-30 13:07 | 31.79553 | 36.25520 | 4468 ft | 265 kts | 211° |
| 2026-04-30 13:08 | 31.78229 | 36.24125 | 4305 ft | 249 kts | 237° |
| 2026-04-30 13:08 | 31.77423 | 36.22419 | 4261 ft | 229 kts | 247° |
| 2026-04-30 13:08 | 31.76777 | 36.20789 | 4252 ft | 211 kts | 248° |
| 2026-04-30 13:08 | 31.76164 | 36.19254 | 4260 ft | 206 kts | 248° |
| 2026-04-30 13:09 | 31.75540 | 36.17731 | 4274 ft | 201 kts | 246° |
| 2026-04-30 13:09 | 31.74810 | 36.16392 | 4267 ft | 192 kts | 235° |
| 2026-04-30 13:09 | 31.74114 | 36.15083 | 4269 ft | 187 kts | 248° |
| 2026-04-30 13:09 | 31.73688 | 36.13660 | 4286 ft | 176 kts | 257° |
| 2026-04-30 13:10 | 31.73480 | 36.12325 | 4224 ft | 158 kts | 264° |
| 2026-04-30 13:10 | 31.73319 | 36.11150 | 4017 ft | 137 kts | 264° |
| 2026-04-30 13:10 | 31.73167 | 36.10073 | 3871 ft | 132 kts | 264° |
| 2026-04-30 13:10 | 31.73015 | 36.09015 | 3680 ft | 128 kts | 262° |
| 2026-04-30 13:11 | 31.72870 | 36.08000 | 3511 ft | 125 kts | 264° |
| 2026-04-30 13:11 | 31.72726 | 36.07004 | 3326 ft | 125 kts | 260° |
| 2026-04-30 13:11 | 31.72580 | 36.05991 | 3160 ft | 126 kts | 262° |
| 2026-04-30 13:11 | 31.72434 | 36.04969 | 2953 ft | 127 kts | 262° |
| 2026-04-30 13:12 | 31.72288 | 36.03953 | 2768 ft | 123 kts | 264° |
| 2026-04-30 13:12 | 31.72145 | 36.02946 | 2615 ft | 129 kts | 264° |
| 2026-04-30 13:12 | 31.71992 | 36.01910 | 2461 ft | 127 kts | 264° |
| 2026-04-30 13:13 | 31.71761 | 36.00295 | 2414 ft | 51 kts | 262° |
| 2026-04-30 13:13 | 31.71721 | 36.00067 | 2416 ft | 22 kts | 261° |
| 2026-04-30 13:13 | 31.71661 | 35.99505 | 2414 ft | 36 kts | 275° |
| 2026-04-30 13:14 | 31.71730 | 35.99214 | 2412 ft | 38 kts | 289° |
| 2026-04-30 13:14 | 31.71816 | 35.98930 | 2413 ft | 35 kts | 287° |
| 2026-04-30 13:14 | 31.71842 | 35.98606 | 2414 ft | 19 kts | 335° |
| 2026-04-30 13:15 | 31.71952 | 35.98619 | 2413 ft | 16 kts | 73° |
| 2026-04-30 13:15 | 31.71906 | 35.98702 | 2414 ft | 2 kts | 170° |